Amasa, Michigan
Current Conditions -  °F | °C
As of 12:05 PM on Saturday 22 Nov 2014 (Local Time) from KIMT Reporting Station
Scattered Clouds Scattered Clouds  
Wind Chill: 33°   Ceiling: Unl
Heat Index: 38°   Visibility: 8mi
Dew Point: 30°   Wind: 6mph
Humidity: 73%   Direction: 250°WSW
Pressure: 29.7"   Gusts: NA
Location:  46.23°N, 88.45°W
Report Text: KIMT 221805Z AUTO 25005KT 8SM SCT016 03/M01 A2970 RMK AO2 T00331011
Loading
Personal Weather Stations






























Interactive Weather Map New forecast layout! Learn more

10-Day Weather Forecast

Advertisements
Track Severe Weather on mobile